createdAt,value
2017-08-05T00:00:23.841Z,0
2017-08-05T00:01:25.132Z,0
2017-08-05T00:02:26.377Z,0
2017-08-05T00:03:27.622Z,0
2017-08-05T00:04:28.854Z,0
2017-08-05T00:05:30.232Z,0
2017-08-05T00:06:31.473Z,0
2017-08-05T00:07:32.711Z,0
2017-08-05T00:08:33.957Z,0
2017-08-05T00:09:35.209Z,0
2017-08-05T00:10:36.450Z,0
2017-08-05T00:11:37.708Z,0
2017-08-05T00:12:39.016Z,0
2017-08-05T00:13:40.266Z,0
2017-08-05T00:14:41.542Z,0
2017-08-05T00:15:42.778Z,0
2017-08-05T00:16:44.015Z,0
2017-08-05T00:17:45.340Z,0
2017-08-05T00:18:46.593Z,0
2017-08-05T00:19:47.874Z,0
2017-08-05T00:20:49.215Z,0
2017-08-05T00:21:50.450Z,0
2017-08-05T00:22:51.723Z,0
2017-08-05T00:23:52.962Z,0
2017-08-05T00:24:54.205Z,0
2017-08-05T00:25:55.554Z,0
2017-08-05T00:26:56.799Z,0
2017-08-05T00:27:58.042Z,0
2017-08-05T00:28:59.280Z,0
2017-08-05T00:30:00.541Z,0
2017-08-05T00:31:01.824Z,0
2017-08-05T00:32:03.087Z,0
2017-08-05T00:33:04.307Z,0
2017-08-05T00:34:05.598Z,0
2017-08-05T00:35:06.833Z,0
2017-08-05T00:36:08.080Z,0
2017-08-05T00:37:09.347Z,0
2017-08-05T00:38:10.591Z,0
2017-08-05T00:39:11.937Z,0
2017-08-05T00:40:13.174Z,0
2017-08-05T00:41:14.411Z,0
2017-08-05T00:42:15.725Z,0
2017-08-05T00:43:17.110Z,0
2017-08-05T00:44:18.223Z,0
2017-08-05T00:45:19.470Z,0
2017-08-05T00:46:20.709Z,0
2017-08-05T00:47:21.939Z,0
2017-08-05T00:48:23.189Z,0
2017-08-05T00:49:24.468Z,0
2017-08-05T00:50:25.717Z,0
2017-08-05T00:51:27.054Z,0
2017-08-05T00:52:28.291Z,0
2017-08-05T00:53:29.586Z,0
2017-08-05T00:54:30.823Z,0
2017-08-05T00:55:32.188Z,0
2017-08-05T00:56:33.493Z,0
2017-08-05T00:57:34.724Z,0
2017-08-05T00:58:35.959Z,0
2017-08-05T00:59:37.217Z,0
2017-08-05T01:00:38.485Z,0
2017-08-05T01:01:39.804Z,0
2017-08-05T01:02:41.045Z,0
2017-08-05T01:03:42.286Z,0
2017-08-05T01:04:43.573Z,0
2017-08-05T01:05:44.829Z,0
2017-08-05T01:06:46.040Z,0
2017-08-05T01:07:47.430Z,0
2017-08-05T01:08:48.738Z,0
2017-08-05T01:09:50.064Z,0
2017-08-05T01:10:51.300Z,0
2017-08-05T01:11:52.539Z,0
2017-08-05T01:12:53.775Z,0
2017-08-05T01:13:55.133Z,0
2017-08-05T01:14:56.273Z,0
2017-08-05T01:15:57.523Z,0
2017-08-05T01:16:58.782Z,0
2017-08-05T01:18:00.005Z,0
2017-08-05T01:19:01.242Z,0
2017-08-05T01:20:02.485Z,0
2017-08-05T01:21:03.733Z,0
2017-08-05T01:22:04.980Z,0
2017-08-05T01:23:06.236Z,0
2017-08-05T01:24:07.456Z,0
2017-08-05T01:25:08.702Z,0
2017-08-05T01:26:09.939Z,0
2017-08-05T01:27:11.284Z,0
2017-08-05T01:28:12.493Z,0
2017-08-05T01:29:13.786Z,0
2017-08-05T01:30:15.031Z,0
2017-08-05T01:31:16.302Z,0
2017-08-05T01:32:17.557Z,0
2017-08-05T01:33:18.792Z,0
2017-08-05T01:34:20.149Z,0
2017-08-05T01:35:21.405Z,0
2017-08-05T01:36:22.625Z,0
2017-08-05T01:37:23.868Z,0
2017-08-05T01:38:25.107Z,0
2017-08-05T01:39:26.583Z,0
2017-08-05T01:40:27.925Z,0
2017-08-05T01:41:29.179Z,0
2017-08-05T01:42:30.405Z,0
2017-08-05T01:43:31.641Z,0
2017-08-05T01:44:32.873Z,0
2017-08-05T01:45:34.109Z,0
2017-08-05T01:46:35.350Z,0
2017-08-05T01:47:36.587Z,0
2017-08-05T01:48:37.838Z,0
2017-08-05T01:49:39.074Z,0
2017-08-05T01:50:40.310Z,0
2017-08-05T01:51:41.705Z,0
2017-08-05T01:52:42.984Z,0
2017-08-05T01:53:44.295Z,0
2017-08-05T01:54:45.597Z,0
2017-08-05T01:55:46.828Z,0
2017-08-05T01:56:48.071Z,0
2017-08-05T01:57:49.408Z,0
2017-08-05T01:58:50.532Z,0
2017-08-05T01:59:51.787Z,0
2017-08-05T02:00:53.110Z,0
2017-08-05T02:01:54.347Z,0
2017-08-05T02:02:55.588Z,0
2017-08-05T02:03:56.836Z,0
2017-08-05T02:04:58.154Z,0
2017-08-05T02:05:59.417Z,0
2017-08-05T02:07:00.652Z,0
2017-08-05T02:08:01.895Z,0
2017-08-05T02:09:03.140Z,0
2017-08-05T02:10:04.381Z,0
2017-08-05T02:11:05.624Z,0
2017-08-05T02:12:06.896Z,0
2017-08-05T02:13:08.197Z,0
2017-08-05T02:14:09.427Z,0
2017-08-05T02:15:10.658Z,0
2017-08-05T02:16:11.909Z,0
2017-08-05T02:17:13.145Z,0
2017-08-05T02:18:14.392Z,0
2017-08-05T02:19:15.772Z,0
2017-08-05T02:20:17.006Z,0
2017-08-05T02:21:18.245Z,0
2017-08-05T02:22:19.472Z,0
2017-08-05T02:23:20.709Z,0
2017-08-05T02:24:21.960Z,0
2017-08-05T02:25:23.214Z,0
2017-08-05T02:26:24.444Z,0
2017-08-05T02:27:25.710Z,0
2017-08-05T02:28:26.946Z,0
2017-08-05T02:29:28.185Z,0
2017-08-05T02:30:29.446Z,0
2017-08-05T02:31:30.683Z,0
2017-08-05T02:32:31.924Z,0
2017-08-05T02:33:33.163Z,0
2017-08-05T02:34:34.412Z,0
2017-08-05T02:35:35.657Z,0
2017-08-05T02:36:36.900Z,0
2017-08-05T02:37:38.167Z,0
2017-08-05T02:38:39.466Z,0
2017-08-05T02:39:40.703Z,0
2017-08-05T02:40:41.938Z,0
2017-08-05T02:41:43.169Z,0
2017-08-05T02:42:44.418Z,0
2017-08-05T02:43:45.649Z,0
2017-08-05T02:44:47.034Z,0
2017-08-05T02:45:48.251Z,0
2017-08-05T02:46:49.490Z,0
2017-08-05T02:47:50.728Z,0
2017-08-05T02:48:51.990Z,0
2017-08-05T02:49:53.354Z,0
2017-08-05T02:50:54.481Z,0
2017-08-05T02:51:55.852Z,0
2017-08-05T02:52:57.095Z,0
2017-08-05T02:53:58.338Z,0
2017-08-05T02:54:59.706Z,0
2017-08-05T02:56:00.910Z,0
2017-08-05T02:57:02.203Z,0
2017-08-05T02:58:03.454Z,0
2017-08-05T02:59:04.667Z,0
2017-08-05T03:00:05.912Z,0
2017-08-05T03:01:07.145Z,0
2017-08-05T03:02:08.498Z,0
2017-08-05T03:03:09.836Z,0
2017-08-05T03:04:11.080Z,0
2017-08-05T03:05:12.317Z,0
2017-08-05T03:06:13.594Z,0
2017-08-05T03:07:14.831Z,0
2017-08-05T03:08:16.070Z,0
2017-08-05T03:09:17.409Z,0
2017-08-05T03:10:18.644Z,0
2017-08-05T03:11:19.885Z,0
2017-08-05T03:12:21.118Z,0
2017-08-05T03:13:22.351Z,0
2017-08-05T03:14:23.599Z,0
2017-08-05T03:15:24.825Z,0
2017-08-05T03:16:26.166Z,0
2017-08-05T03:17:27.401Z,0
2017-08-05T03:18:28.632Z,0
2017-08-05T03:19:29.877Z,0
2017-08-05T03:20:31.096Z,0
2017-08-05T03:21:32.370Z,0
2017-08-05T03:22:33.621Z,4
2017-08-05T03:23:34.894Z,4
2017-08-05T03:24:36.179Z,0
2017-08-05T03:25:37.396Z,0
2017-08-05T03:26:38.639Z,0
2017-08-05T03:27:39.868Z,4
2017-08-05T03:28:41.253Z,4
2017-08-05T03:29:42.452Z,0
2017-08-05T03:30:43.788Z,4
2017-08-05T03:31:45.026Z,4
2017-08-05T03:32:46.261Z,4
2017-08-05T03:33:47.518Z,4
2017-08-05T03:34:48.753Z,8
2017-08-05T03:35:50.012Z,8
2017-08-05T03:36:51.302Z,8
2017-08-05T03:37:52.552Z,8
2017-08-05T03:38:53.770Z,12
2017-08-05T03:39:55.010Z,12
2017-08-05T03:40:56.248Z,16
2017-08-05T03:41:57.491Z,16
2017-08-05T03:42:58.755Z,20
2017-08-05T03:44:00.014Z,20
2017-08-05T03:45:01.253Z,20
2017-08-05T03:46:02.495Z,24
2017-08-05T03:47:03.796Z,28
2017-08-05T03:48:05.031Z,32
2017-08-05T03:49:06.339Z,36
2017-08-05T03:50:07.580Z,44
2017-08-05T03:51:08.830Z,52
2017-08-05T03:52:10.068Z,56
2017-08-05T03:53:11.297Z,68
2017-08-05T03:54:13.448Z,76
2017-08-05T03:55:15.115Z,88
2017-08-05T03:56:16.365Z,96
2017-08-05T03:57:17.610Z,104
2017-08-05T03:58:18.904Z,104
2017-08-05T03:59:20.143Z,112
2017-08-05T04:00:21.369Z,124
2017-08-05T04:01:22.609Z,132
2017-08-05T04:02:23.839Z,136
2017-08-05T04:03:25.178Z,148
2017-08-05T04:04:26.427Z,160
2017-08-05T04:05:27.667Z,168
2017-08-05T04:06:28.914Z,176
2017-08-05T04:07:30.154Z,204
2017-08-05T04:08:31.393Z,240
2017-08-05T04:09:32.640Z,256
2017-08-05T04:10:33.989Z,260
2017-08-05T04:11:35.309Z,268
2017-08-05T04:12:36.542Z,256
2017-08-05T04:13:37.780Z,244
2017-08-05T04:14:39.007Z,248
2017-08-05T04:15:40.258Z,264
2017-08-05T04:16:41.520Z,268
2017-08-05T04:17:42.750Z,256
2017-08-05T04:18:44.069Z,252
2017-08-05T04:19:45.302Z,252
2017-08-05T04:20:46.539Z,260
2017-08-05T04:21:47.772Z,280
2017-08-05T04:22:49.047Z,292
2017-08-05T04:23:50.304Z,296
2017-08-05T04:24:51.620Z,312
2017-08-05T04:25:52.862Z,344
2017-08-05T04:26:54.099Z,364
2017-08-05T04:27:55.338Z,352
2017-08-05T04:28:56.591Z,344
2017-08-05T04:29:57.977Z,372
2017-08-05T04:30:59.220Z,400
2017-08-05T04:32:00.456Z,436
2017-08-05T04:33:01.693Z,464
2017-08-05T04:34:02.934Z,496
2017-08-05T04:35:04.315Z,532
2017-08-05T04:36:05.557Z,576
2017-08-05T04:37:06.802Z,584
2017-08-05T04:38:08.034Z,548
2017-08-05T04:39:09.294Z,524
2017-08-05T04:40:10.510Z,504
2017-08-05T04:41:11.737Z,512
2017-08-05T04:42:13.085Z,528
2017-08-05T04:43:14.318Z,540
2017-08-05T04:44:15.561Z,564
2017-08-05T04:45:16.792Z,600
2017-08-05T04:46:18.236Z,592
2017-08-05T04:47:19.525Z,584
2017-08-05T04:48:20.785Z,584
2017-08-05T04:49:22.023Z,592
2017-08-05T04:50:23.259Z,616
2017-08-05T04:51:24.499Z,640
2017-08-05T04:52:25.772Z,660
2017-08-05T04:53:27.022Z,680
2017-08-05T04:54:28.306Z,752
2017-08-05T04:55:29.555Z,824
2017-08-05T04:56:30.795Z,832
2017-08-05T04:57:32.033Z,820
2017-08-05T04:58:33.263Z,840
2017-08-05T04:59:34.510Z,844
2017-08-05T05:00:35.758Z,852
2017-08-05T05:01:37.015Z,900
2017-08-05T05:02:38.293Z,1020
2017-08-05T05:03:39.573Z,1140
2017-08-05T05:04:40.788Z,1288
2017-08-05T05:05:42.037Z,1412
2017-08-05T05:06:43.277Z,1500
2017-08-05T05:07:44.545Z,1672
2017-08-05T05:08:46.009Z,1704
2017-08-05T05:09:47.247Z,1684
2017-08-05T05:10:48.484Z,1632
2017-08-05T05:11:49.779Z,1564
2017-08-05T05:12:51.028Z,1524
2017-08-05T05:13:52.258Z,1548
2017-08-05T05:14:53.514Z,1572
2017-08-05T05:15:54.749Z,1572
2017-08-05T05:16:56.088Z,1512
2017-08-05T05:17:57.321Z,1408
2017-08-05T05:18:58.576Z,1348
2017-08-05T05:19:59.889Z,1364
2017-08-05T05:21:01.140Z,1360
2017-08-05T05:22:02.385Z,1316
2017-08-05T05:23:03.616Z,1232
2017-08-05T05:24:04.859Z,1140
2017-08-05T05:25:06.090Z,1076
2017-08-05T05:26:07.355Z,1052
2017-08-05T05:27:08.592Z,1040
2017-08-05T05:28:09.939Z,1028
2017-08-05T05:29:11.184Z,1084
2017-08-05T05:30:12.440Z,1152
2017-08-05T05:31:13.779Z,1196
2017-08-05T05:32:14.921Z,1220
2017-08-05T05:33:16.282Z,1260
2017-08-05T05:34:17.539Z,1320
2017-08-05T05:35:18.755Z,1328
2017-08-05T05:36:20.011Z,1344
2017-08-05T05:37:21.265Z,1380
2017-08-05T05:38:22.510Z,1420
2017-08-05T05:39:23.778Z,1476
2017-08-05T05:40:25.032Z,1504
2017-08-05T05:41:26.299Z,1460
2017-08-05T05:42:27.548Z,1316
2017-08-05T05:43:28.779Z,1204
2017-08-05T05:44:30.033Z,1108
2017-08-05T05:45:31.317Z,1040
2017-08-05T05:46:32.560Z,1004
2017-08-05T05:47:33.852Z,1020
2017-08-05T05:48:35.092Z,1252
2017-08-05T05:49:36.334Z,1824
2017-08-05T05:50:37.598Z,2076
2017-08-05T05:51:38.834Z,1988
2017-08-05T05:52:40.092Z,2276
2017-08-05T05:53:41.356Z,2616
2017-08-05T05:54:42.590Z,2828
2017-08-05T05:55:43.875Z,3064
2017-08-05T05:56:45.119Z,3100
2017-08-05T05:57:46.424Z,2804
2017-08-05T05:58:47.644Z,2656
2017-08-05T05:59:48.995Z,2544
2017-08-05T06:00:50.235Z,2544
2017-08-05T06:01:51.479Z,2644
2017-08-05T06:02:52.715Z,2636
2017-08-05T06:03:54.084Z,2584
2017-08-05T06:04:55.356Z,2616
2017-08-05T06:05:56.593Z,2688
2017-08-05T06:06:57.877Z,2728
2017-08-05T06:07:59.135Z,2676
2017-08-05T06:09:00.366Z,2660
2017-08-05T06:10:01.691Z,2528
2017-08-05T06:11:02.925Z,2520
2017-08-05T06:12:04.199Z,2860
2017-08-05T06:13:05.446Z,3120
2017-08-05T06:14:06.686Z,3320
2017-08-05T06:15:07.937Z,3556
2017-08-05T06:16:09.182Z,3584
2017-08-05T06:17:10.440Z,3520
2017-08-05T06:18:11.741Z,3600
2017-08-05T06:19:12.983Z,4020
2017-08-05T06:20:14.217Z,4636
2017-08-05T06:21:15.457Z,5072
2017-08-05T06:22:16.761Z,5388
2017-08-05T06:23:18.039Z,6156
2017-08-05T06:24:19.342Z,5796
2017-08-05T06:25:20.565Z,6032
2017-08-05T06:26:21.874Z,6144
2017-08-05T06:27:23.119Z,6484
2017-08-05T06:28:24.365Z,6616
2017-08-05T06:29:25.603Z,6856
2017-08-05T06:30:26.844Z,6400
2017-08-05T06:31:28.085Z,5728
2017-08-05T06:32:29.428Z,5560
2017-08-05T06:33:30.665Z,5940
2017-08-05T06:34:31.898Z,6736
2017-08-05T06:35:33.167Z,7072
2017-08-05T06:36:34.398Z,6132
2017-08-05T06:37:35.648Z,5592
2017-08-05T06:38:36.894Z,4592
2017-08-05T06:39:38.151Z,4744
2017-08-05T06:40:39.385Z,4144
2017-08-05T06:41:40.733Z,3636
2017-08-05T06:42:41.996Z,3644
2017-08-05T06:43:43.358Z,3560
2017-08-05T06:44:44.599Z,3240
2017-08-05T06:45:45.843Z,3132
2017-08-05T06:46:47.076Z,2996
2017-08-05T06:47:48.317Z,3148
2017-08-05T06:48:49.792Z,3052
2017-08-05T06:49:51.026Z,3096
2017-08-05T06:50:52.267Z,3088
2017-08-05T06:51:53.505Z,3160
2017-08-05T06:52:54.797Z,3332
2017-08-05T06:53:56.073Z,3504
2017-08-05T06:54:57.424Z,3640
2017-08-05T06:55:58.684Z,3796
2017-08-05T06:56:59.910Z,3924
2017-08-05T06:58:01.172Z,4152
2017-08-05T06:59:02.417Z,4260
2017-08-05T07:00:03.693Z,4616
2017-08-05T07:01:05.070Z,5016
2017-08-05T07:02:06.305Z,4940
2017-08-05T07:03:07.547Z,4468
2017-08-05T07:04:08.790Z,3932
2017-08-05T07:05:10.062Z,3452
2017-08-05T07:06:11.281Z,3244
2017-08-05T07:07:12.537Z,3256
2017-08-05T07:08:13.779Z,3232
2017-08-05T07:09:15.027Z,3412
2017-08-05T07:10:16.272Z,3692
2017-08-05T07:11:17.513Z,3768
2017-08-05T07:12:18.758Z,3844
2017-08-05T07:13:19.989Z,3736
2017-08-05T07:14:21.374Z,3844
2017-08-05T07:15:22.637Z,3800
2017-08-05T07:16:23.981Z,3804
2017-08-05T07:17:25.232Z,4096
2017-08-05T07:18:26.456Z,4336
2017-08-05T07:19:27.768Z,4484
2017-08-05T07:20:28.944Z,4856
2017-08-05T07:21:30.273Z,5116
2017-08-05T07:22:31.510Z,5004
2017-08-05T07:23:32.750Z,4644
2017-08-05T07:24:34.008Z,4072
2017-08-05T07:25:35.243Z,3788
2017-08-05T07:26:36.528Z,3796
2017-08-05T07:27:37.849Z,3916
2017-08-05T07:28:39.220Z,4084
2017-08-05T07:29:40.488Z,4100
2017-08-05T07:30:41.723Z,4060
2017-08-05T07:31:42.965Z,3992
2017-08-05T07:32:44.222Z,4196
2017-08-05T07:33:45.474Z,3972
2017-08-05T07:34:46.725Z,3652
2017-08-05T07:35:48.071Z,3520
2017-08-05T07:36:49.309Z,3804
2017-08-05T07:37:50.560Z,4308
2017-08-05T07:38:51.821Z,4572
2017-08-05T07:39:53.137Z,4872
2017-08-05T07:40:54.398Z,5280
2017-08-05T07:41:55.693Z,5500
2017-08-05T07:42:56.944Z,5660
2017-08-05T07:43:58.182Z,5864
2017-08-05T07:44:59.461Z,5844
2017-08-05T07:46:00.701Z,6048
2017-08-05T07:47:01.960Z,6636
2017-08-05T07:48:03.200Z,7324
2017-08-05T07:49:04.431Z,8048
2017-08-05T07:50:05.681Z,8252
2017-08-05T07:51:06.919Z,8704
2017-08-05T07:52:08.266Z,8388
2017-08-05T07:53:09.600Z,7580
2017-08-05T07:54:10.843Z,6680
2017-08-05T07:55:12.080Z,6124
2017-08-05T07:56:13.318Z,5400
2017-08-05T07:57:14.676Z,4536
2017-08-05T07:58:16.004Z,3924
2017-08-05T07:59:17.241Z,3796
2017-08-05T08:00:18.500Z,3976
2017-08-05T08:01:19.754Z,4064
2017-08-05T08:02:20.988Z,4172
2017-08-05T08:03:22.227Z,4320
2017-08-05T08:04:23.550Z,4484
2017-08-05T08:05:24.791Z,4708
2017-08-05T08:06:26.038Z,5060
2017-08-05T08:07:27.282Z,5588
2017-08-05T08:08:28.526Z,5904
2017-08-05T08:09:30.102Z,6248
2017-08-05T08:10:31.325Z,6860
2017-08-05T08:11:32.560Z,7424
2017-08-05T08:12:33.852Z,7272
2017-08-05T08:13:35.088Z,7672
2017-08-05T08:14:36.329Z,7952
2017-08-05T08:15:37.639Z,7784
2017-08-05T08:16:38.877Z,7588
2017-08-05T08:17:40.123Z,7192
2017-08-05T08:18:41.370Z,6764
2017-08-05T08:19:42.617Z,6372
2017-08-05T08:20:43.867Z,5960
2017-08-05T08:21:45.104Z,5812
2017-08-05T08:22:46.367Z,5740
2017-08-05T08:23:47.662Z,5928
2017-08-05T08:24:48.901Z,5904
2017-08-05T08:25:50.150Z,5884
2017-08-05T08:26:51.393Z,5932
2017-08-05T08:27:52.673Z,6256
2017-08-05T08:28:53.939Z,7128
2017-08-05T08:29:55.206Z,7840
2017-08-05T08:30:56.447Z,7760
2017-08-05T08:31:57.696Z,8104
2017-08-05T08:32:58.934Z,8328
2017-08-05T08:34:00.168Z,8432
2017-08-05T08:35:01.403Z,8264
2017-08-05T08:36:02.654Z,8012
2017-08-05T08:37:03.912Z,7728
2017-08-05T08:38:05.178Z,6876
2017-08-05T08:39:06.420Z,5688
2017-08-05T08:40:07.666Z,5276
2017-08-05T08:41:08.999Z,5716
2017-08-05T08:42:10.272Z,6448
2017-08-05T08:43:11.519Z,6884
2017-08-05T08:44:12.758Z,7584
2017-08-05T08:45:14.008Z,7476
2017-08-05T08:46:15.248Z,7156
2017-08-05T08:47:16.484Z,6944
2017-08-05T08:48:17.793Z,6424
2017-08-05T08:49:19.027Z,6704
2017-08-05T08:50:20.285Z,6960
2017-08-05T08:51:21.541Z,6864
2017-08-05T08:52:22.779Z,6772
2017-08-05T08:53:24.021Z,7288
2017-08-05T08:54:25.263Z,7032
2017-08-05T08:55:26.531Z,6288
2017-08-05T08:56:27.795Z,6392
2017-08-05T08:57:29.042Z,6768
2017-08-05T08:58:30.275Z,7404
2017-08-05T08:59:31.538Z,8188
2017-08-05T09:00:32.799Z,9164
2017-08-05T09:01:34.078Z,10568
2017-08-05T09:02:35.419Z,12432
2017-08-05T09:03:36.657Z,13736
2017-08-05T09:04:38.011Z,14404
2017-08-05T09:05:39.273Z,14460
2017-08-05T09:06:40.506Z,13944
2017-08-05T09:07:41.750Z,13148
2017-08-05T09:08:42.991Z,12720
2017-08-05T09:09:44.372Z,12576
2017-08-05T09:10:45.637Z,12068
2017-08-05T09:11:46.876Z,11068
2017-08-05T09:12:48.115Z,10060
2017-08-05T09:13:49.454Z,9820
2017-08-05T09:14:50.690Z,9804
2017-08-05T09:15:51.964Z,10096
2017-08-05T09:16:53.195Z,10592
2017-08-05T09:17:54.430Z,10604
2017-08-05T09:18:55.677Z,10400
2017-08-05T09:19:56.926Z,9860
2017-08-05T09:20:58.307Z,9112
2017-08-05T09:21:59.557Z,8520
2017-08-05T09:23:00.807Z,8296
2017-08-05T09:24:02.054Z,8472
2017-08-05T09:25:03.311Z,8832
2017-08-05T09:26:04.666Z,8508
2017-08-05T09:27:05.971Z,7640
2017-08-05T09:28:07.214Z,6916
2017-08-05T09:29:08.455Z,6428
2017-08-05T09:30:09.824Z,5848
2017-08-05T09:31:11.069Z,4996
2017-08-05T09:32:12.372Z,4340
2017-08-05T09:33:13.732Z,4292
2017-08-05T09:34:14.965Z,5084
2017-08-05T09:35:16.203Z,5044
2017-08-05T09:36:17.478Z,4444
2017-08-05T09:37:18.693Z,4136
2017-08-05T09:38:19.938Z,4380
2017-08-05T09:39:21.264Z,5348
2017-08-05T09:40:22.673Z,5968
2017-08-05T09:41:23.971Z,5724
2017-08-05T09:42:25.199Z,5696
2017-08-05T09:43:26.448Z,5124
2017-08-05T09:44:27.697Z,5096
2017-08-05T09:45:28.933Z,5524
2017-08-05T09:46:30.177Z,5936
2017-08-05T09:47:31.414Z,6392
2017-08-05T09:48:32.664Z,5984
2017-08-05T09:49:33.892Z,4872
2017-08-05T09:50:35.124Z,3832
2017-08-05T09:51:36.410Z,3732
2017-08-05T09:52:37.644Z,4516
2017-08-05T09:53:38.880Z,6008
2017-08-05T09:54:40.134Z,7760
2017-08-05T09:55:41.405Z,9236
2017-08-05T09:56:42.657Z,10220
2017-08-05T09:57:43.900Z,10448
2017-08-05T09:58:45.170Z,10540
2017-08-05T09:59:46.448Z,11232
2017-08-05T10:00:47.693Z,11644
2017-08-05T10:01:48.954Z,12004
2017-08-05T10:02:50.213Z,13364
2017-08-05T10:03:51.452Z,15888
2017-08-05T10:04:52.681Z,18432
2017-08-05T10:05:53.952Z,18144
2017-08-05T10:06:55.197Z,17376
2017-08-05T10:07:56.439Z,17248
2017-08-05T10:08:57.694Z,17728
2017-08-05T10:09:58.960Z,19712
2017-08-05T10:11:00.274Z,25760
2017-08-05T10:12:01.531Z,25120
2017-08-05T10:13:02.773Z,19936
2017-08-05T10:14:04.083Z,18080
2017-08-05T10:15:05.302Z,17408
2017-08-05T10:16:06.547Z,18976
2017-08-05T10:17:07.847Z,19904
2017-08-05T10:18:09.230Z,19936
2017-08-05T10:19:10.483Z,18016
2017-08-05T10:20:11.729Z,17792
2017-08-05T10:21:12.962Z,19328
2017-08-05T10:22:14.220Z,24512
2017-08-05T10:23:15.454Z,32448
2017-08-05T10:24:16.707Z,32512
2017-08-05T10:25:17.968Z,28480
2017-08-05T10:26:19.207Z,29984
2017-08-05T10:27:20.455Z,26880
2017-08-05T10:28:21.711Z,22688
2017-08-05T10:29:22.976Z,21216
2017-08-05T10:30:24.352Z,19616
2017-08-05T10:31:25.617Z,19296
2017-08-05T10:32:26.840Z,25056
2017-08-05T10:33:28.084Z,25088
2017-08-05T10:34:29.319Z,23712
2017-08-05T10:35:30.641Z,19200
2017-08-05T10:36:31.890Z,16300
2017-08-05T10:37:33.174Z,14088
2017-08-05T10:38:34.427Z,11892
2017-08-05T10:39:35.669Z,11512
2017-08-05T10:40:36.918Z,11948
2017-08-05T10:41:38.236Z,12116
2017-08-05T10:42:39.480Z,11980
2017-08-05T10:43:40.735Z,12100
2017-08-05T10:44:42.001Z,12744
2017-08-05T10:45:43.253Z,14312
2017-08-05T10:46:44.493Z,15088
2017-08-05T10:47:45.758Z,16412
2017-08-05T10:48:47.015Z,15292
2017-08-05T10:49:48.263Z,13964
2017-08-05T10:50:49.560Z,13244
2017-08-05T10:51:50.826Z,14060
2017-08-05T10:52:52.050Z,14108
2017-08-05T10:53:53.305Z,13348
2017-08-05T10:54:54.700Z,12124
2017-08-05T10:55:55.953Z,11424
2017-08-05T10:56:57.192Z,11704
2017-08-05T10:57:58.439Z,12544
2017-08-05T10:58:59.694Z,13660
2017-08-05T11:00:00.951Z,17024
2017-08-05T11:01:02.207Z,20096
2017-08-05T11:02:03.563Z,19904
2017-08-05T11:03:04.814Z,19008
2017-08-05T11:04:06.117Z,17504
2017-08-05T11:05:07.364Z,17824
2017-08-05T11:06:08.600Z,17888
2017-08-05T11:07:09.843Z,17888
2017-08-05T11:08:11.161Z,17920
2017-08-05T11:09:12.469Z,17696
2017-08-05T11:10:13.708Z,18144
2017-08-05T11:11:14.957Z,20000
2017-08-05T11:12:16.325Z,20064
2017-08-05T11:13:17.558Z,19968
2017-08-05T11:14:18.800Z,19712
2017-08-05T11:15:20.036Z,17952
2017-08-05T11:16:21.284Z,15260
2017-08-05T11:17:22.534Z,16600
2017-08-05T11:18:23.786Z,15672
2017-08-05T11:19:25.013Z,17600
2017-08-05T11:20:26.397Z,17696
2017-08-05T11:21:27.644Z,17440
2017-08-05T11:22:28.877Z,16092
2017-08-05T11:23:30.118Z,15192
2017-08-05T11:24:31.362Z,12956
2017-08-05T11:25:32.619Z,12628
2017-08-05T11:26:33.868Z,13460
2017-08-05T11:27:35.119Z,13188
2017-08-05T11:28:36.364Z,13144
2017-08-05T11:29:37.617Z,14356
2017-08-05T11:30:38.864Z,16072
2017-08-05T11:31:40.111Z,16476
2017-08-05T11:32:41.376Z,13916
2017-08-05T11:33:42.622Z,11828
2017-08-05T11:34:43.886Z,10356
2017-08-05T11:35:45.122Z,9272
2017-08-05T11:36:46.378Z,9352
2017-08-05T11:37:47.621Z,10952
2017-08-05T11:38:48.864Z,13792
2017-08-05T11:39:50.105Z,14320
2017-08-05T11:40:51.348Z,12124
2017-08-05T11:41:52.596Z,10188
2017-08-05T11:42:53.854Z,9416
2017-08-05T11:43:55.111Z,10584
2017-08-05T11:44:56.364Z,12164
2017-08-05T11:45:57.605Z,12572
2017-08-05T11:46:58.851Z,12616
2017-08-05T11:48:00.091Z,12644
2017-08-05T11:49:01.338Z,14132
2017-08-05T11:50:02.585Z,13420
2017-08-05T11:51:03.955Z,11804
2017-08-05T11:52:05.095Z,12616
2017-08-05T11:53:06.454Z,12832
2017-08-05T11:54:07.705Z,12440
2017-08-05T11:55:08.940Z,12696
2017-08-05T11:56:10.181Z,12760
2017-08-05T11:57:11.419Z,12808
2017-08-05T11:58:12.864Z,12140
2017-08-05T11:59:14.154Z,12436
2017-08-05T12:00:15.500Z,14032
2017-08-05T12:01:16.738Z,16204
2017-08-05T12:02:18.064Z,18560
2017-08-05T12:03:19.315Z,19744
2017-08-05T12:04:20.564Z,17632
2017-08-05T12:05:21.815Z,13760
2017-08-05T12:06:23.071Z,14448
2017-08-05T12:07:24.303Z,12104
2017-08-05T12:08:25.534Z,11812
2017-08-05T12:09:26.801Z,13612
2017-08-05T12:10:28.158Z,13040
2017-08-05T12:11:29.402Z,13540
2017-08-05T12:12:30.648Z,14788
2017-08-05T12:13:32.017Z,15056
2017-08-05T12:14:33.264Z,15716
2017-08-05T12:15:34.593Z,17504
2017-08-05T12:16:35.882Z,14760
2017-08-05T12:17:37.141Z,15060
2017-08-05T12:18:38.382Z,17888
2017-08-05T12:19:39.613Z,16928
2017-08-05T12:20:40.852Z,16012
2017-08-05T12:21:42.105Z,13888
2017-08-05T12:22:43.447Z,12124
2017-08-05T12:23:44.699Z,14276
2017-08-05T12:24:45.942Z,14484
2017-08-05T12:25:47.177Z,14588
2017-08-05T12:26:48.435Z,14196
2017-08-05T12:27:49.660Z,13884
2017-08-05T12:28:50.930Z,14512
2017-08-05T12:29:52.345Z,13168
2017-08-05T12:30:53.597Z,13756
2017-08-05T12:31:54.843Z,13812
2017-08-05T12:32:56.081Z,15112
2017-08-05T12:33:57.334Z,14776
2017-08-05T12:34:58.681Z,12784
2017-08-05T12:35:59.924Z,11168
2017-08-05T12:37:01.168Z,8588
2017-08-05T12:38:02.408Z,7876
2017-08-05T12:39:03.649Z,9448
2017-08-05T12:40:04.938Z,10984
2017-08-05T12:41:06.190Z,9328
2017-08-05T12:42:07.436Z,8544
2017-08-05T12:43:08.683Z,7440
2017-08-05T12:44:09.924Z,6700
2017-08-05T12:45:11.173Z,6584
2017-08-05T12:46:12.422Z,6480
2017-08-05T12:47:13.771Z,6488
2017-08-05T12:48:15.008Z,6600
2017-08-05T12:49:16.253Z,6564
2017-08-05T12:50:17.556Z,5884
2017-08-05T12:51:18.796Z,5500
2017-08-05T12:52:20.038Z,5128
2017-08-05T12:53:21.285Z,5212
2017-08-05T12:54:22.600Z,5556
2017-08-05T12:55:23.905Z,6228
2017-08-05T12:56:25.152Z,6528
2017-08-05T12:57:26.395Z,6672
2017-08-05T12:58:27.635Z,6976
2017-08-05T12:59:28.892Z,6700
2017-08-05T13:00:30.148Z,7360
2017-08-05T13:01:31.436Z,8812
2017-08-05T13:02:32.643Z,9056
2017-08-05T13:03:33.967Z,7768
2017-08-05T13:04:35.205Z,7084
2017-08-05T13:05:36.465Z,7040
2017-08-05T13:06:37.724Z,7636
2017-08-05T13:07:38.964Z,7604
2017-08-05T13:08:40.243Z,7932
2017-08-05T13:09:41.493Z,7800
2017-08-05T13:10:42.705Z,8452
2017-08-05T13:11:43.962Z,8564
2017-08-05T13:12:45.192Z,8644
2017-08-05T13:13:46.457Z,8788
2017-08-05T13:14:47.705Z,9340
2017-08-05T13:15:48.971Z,9136
2017-08-05T13:16:50.197Z,9920
2017-08-05T13:17:51.437Z,10004
2017-08-05T13:18:52.676Z,9648
2017-08-05T13:19:53.954Z,9028
2017-08-05T13:20:55.203Z,8052
2017-08-05T13:21:56.444Z,7916
2017-08-05T13:22:57.705Z,9852
2017-08-05T13:23:58.963Z,9412
2017-08-05T13:25:00.180Z,9948
2017-08-05T13:26:01.420Z,8896
2017-08-05T13:27:02.681Z,9580
2017-08-05T13:28:03.926Z,9380
2017-08-05T13:29:05.171Z,9332
2017-08-05T13:30:06.394Z,8700
2017-08-05T13:31:07.630Z,7696
2017-08-05T13:32:08.894Z,7448
2017-08-05T13:33:10.153Z,7060
2017-08-05T13:34:11.534Z,7700
2017-08-05T13:35:12.813Z,8004
2017-08-05T13:36:14.100Z,7684
2017-08-05T13:37:15.357Z,6732
2017-08-05T13:38:16.609Z,7648
2017-08-05T13:39:17.875Z,9780
2017-08-05T13:40:19.109Z,10660
2017-08-05T13:41:20.419Z,10980
2017-08-05T13:42:21.669Z,9556
2017-08-05T13:43:22.920Z,8756
2017-08-05T13:44:24.175Z,11236
2017-08-05T13:45:25.413Z,11724
2017-08-05T13:46:26.672Z,12280
2017-08-05T13:47:28.027Z,13016
2017-08-05T13:48:29.803Z,12656
2017-08-05T13:49:30.929Z,11560
2017-08-05T13:50:32.197Z,10628
2017-08-05T13:51:33.499Z,8536
2017-08-05T13:52:34.753Z,7340
2017-08-05T13:53:35.976Z,7332
2017-08-05T13:54:37.215Z,9892